sensor_id;sensor_type;location;lat;lon;timestamp;noise_LAeq;noise_LA_min;noise_LA_max;noise_LA01;noise_LA95
63692;Laerm;49838;51.798;10.954;2023-12-20T00:02:19;37.49;29.84;56.24;;
63692;Laerm;49838;51.798;10.954;2023-12-20T00:04:46;36.42;29.87;52.48;;
63692;Laerm;49838;51.798;10.954;2023-12-20T00:07:13;38.76;30.47;55.79;;
63692;Laerm;49838;51.798;10.954;2023-12-20T00:09:40;41.54;31.10;62.81;;
63692;Laerm;49838;51.798;10.954;2023-12-20T00:12:08;35.02;29.91;49.83;;
63692;Laerm;49838;51.798;10.954;2023-12-20T00:14:37;54.25;30.22;72.19;;
63692;Laerm;49838;51.798;10.954;2023-12-20T00:17:04;39.75;29.97;58.03;;
63692;Laerm;49838;51.798;10.954;2023-12-20T00:19:31;38.52;31.20;57.48;;
63692;Laerm;49838;51.798;10.954;2023-12-20T00:21:58;41.44;31.04;56.30;;
63692;Laerm;49838;51.798;10.954;2023-12-20T00:24:26;44.49;31.47;68.63;;
63692;Laerm;49838;51.798;10.954;2023-12-20T00:26:53;39.55;31.25;55.68;;
63692;Laerm;49838;51.798;10.954;2023-12-20T00:29:20;37.53;31.23;51.46;;
63692;Laerm;49838;51.798;10.954;2023-12-20T00:31:49;35.81;30.96;54.39;;
63692;Laerm;49838;51.798;10.954;2023-12-20T00:34:16;41.98;30.45;64.11;;
63692;Laerm;49838;51.798;10.954;2023-12-20T00:36:44;35.53;30.13;56.15;;
63692;Laerm;49838;51.798;10.954;2023-12-20T00:39:11;38.48;30.14;56.85;;
63692;Laerm;49838;51.798;10.954;2023-12-20T00:41:38;36.87;31.09;56.04;;
63692;Laerm;49838;51.798;10.954;2023-12-20T00:44:05;35.10;29.77;52.38;;
63692;Laerm;49838;51.798;10.954;2023-12-20T00:46:33;37.73;30.47;55.66;;
63692;Laerm;49838;51.798;10.954;2023-12-20T00:49:01;37.95;30.66;57.11;;
63692;Laerm;49838;51.798;10.954;2023-12-20T00:51:28;37.82;30.10;55.61;;
63692;Laerm;49838;51.798;10.954;2023-12-20T00:53:55;37.57;30.32;57.30;;
63692;Laerm;49838;51.798;10.954;2023-12-20T00:56:23;39.32;29.88;57.32;;
63692;Laerm;49838;51.798;10.954;2023-12-20T00:58:50;36.06;30.06;55.22;;
63692;Laerm;49838;51.798;10.954;2023-12-20T01:01:17;37.99;30.28;53.93;;
63692;Laerm;49838;51.798;10.954;2023-12-20T01:03:45;35.13;29.68;53.51;;
63692;Laerm;49838;51.798;10.954;2023-12-20T01:06:13;37.21;29.84;55.69;;
63692;Laerm;49838;51.798;10.954;2023-12-20T01:08:41;37.70;30.04;59.82;;
63692;Laerm;49838;51.798;10.954;2023-12-20T01:11:09;35.01;30.49;46.81;;
63692;Laerm;49838;51.798;10.954;2023-12-20T01:13:36;39.27;30.81;59.43;;
63692;Laerm;49838;51.798;10.954;2023-12-20T01:16:03;36.40;30.42;58.11;;
63692;Laerm;49838;51.798;10.954;2023-12-20T01:18:31;37.61;30.90;56.80;;
63692;Laerm;49838;51.798;10.954;2023-12-20T01:21:01;34.50;29.51;46.65;;
63692;Laerm;49838;51.798;10.954;2023-12-20T01:23:30;38.83;29.20;57.55;;
63692;Laerm;49838;51.798;10.954;2023-12-20T01:25:57;36.78;29.45;53.53;;
63692;Laerm;49838;51.798;10.954;2023-12-20T01:28:26;33.33;29.99;50.51;;
63692;Laerm;49838;51.798;10.954;2023-12-20T01:30:53;33.82;28.98;48.42;;
63692;Laerm;49838;51.798;10.954;2023-12-20T01:33:20;33.71;29.46;45.53;;
63692;Laerm;49838;51.798;10.954;2023-12-20T01:35:48;34.39;29.25;48.92;;
63692;Laerm;49838;51.798;10.954;2023-12-20T01:38:15;35.60;30.00;49.70;;
63692;Laerm;49838;51.798;10.954;2023-12-20T01:40:45;34.26;30.34;48.44;;
63692;Laerm;49838;51.798;10.954;2023-12-20T01:43:13;38.81;29.99;61.52;;
63692;Laerm;49838;51.798;10.954;2023-12-20T01:45:40;37.38;29.62;58.76;;
63692;Laerm;49838;51.798;10.954;2023-12-20T01:48:08;32.97;29.44;41.66;;
63692;Laerm;49838;51.798;10.954;2023-12-20T01:50:36;32.52;28.60;48.34;;
63692;Laerm;49838;51.798;10.954;2023-12-20T01:53:07;34.74;29.30;45.89;;
63692;Laerm;49838;51.798;10.954;2023-12-20T01:55:39;33.79;29.00;48.09;;
63692;Laerm;49838;51.798;10.954;2023-12-20T01:58:09;31.73;28.97;41.11;;
63692;Laerm;49838;51.798;10.954;2023-12-20T02:00:37;32.10;28.47;42.11;;
63692;Laerm;49838;51.798;10.954;2023-12-20T02:03:04;35.02;28.41;56.99;;
63692;Laerm;49838;51.798;10.954;2023-12-20T02:05:35;30.17;28.16;36.01;;
63692;Laerm;49838;51.798;10.954;2023-12-20T02:08:02;33.19;28.39;45.64;;
63692;Laerm;49838;51.798;10.954;2023-12-20T02:10:30;32.64;28.43;40.30;;
63692;Laerm;49838;51.798;10.954;2023-12-20T02:12:57;29.14;27.03;36.03;;
63692;Laerm;49838;51.798;10.954;2023-12-20T02:15:26;30.56;27.52;37.04;;
63692;Laerm;49838;51.798;10.954;2023-12-20T02:17:53;29.77;27.83;37.90;;
63692;Laerm;49838;51.798;10.954;2023-12-20T02:20:21;30.46;26.94;39.71;;
63692;Laerm;49838;51.798;10.954;2023-12-20T02:22:50;28.77;27.19;39.11;;
63692;Laerm;49838;51.798;10.954;2023-12-20T02:25:17;30.18;27.47;43.01;;
63692;Laerm;49838;51.798;10.954;2023-12-20T02:27:44;30.77;27.85;40.61;;
63692;Laerm;49838;51.798;10.954;2023-12-20T02:30:11;31.11;28.18;42.84;;
63692;Laerm;49838;51.798;10.954;2023-12-20T02:32:39;44.20;28.78;64.38;;
63692;Laerm;49838;51.798;10.954;2023-12-20T02:35:06;32.66;29.40;38.19;;
63692;Laerm;49838;51.798;10.954;2023-12-20T02:37:33;32.44;28.61;39.33;;
63692;Laerm;49838;51.798;10.954;2023-12-20T02:40:02;30.99;28.37;36.91;;
63692;Laerm;49838;51.798;10.954;2023-12-20T02:42:30;31.79;28.16;37.93;;
63692;Laerm;49838;51.798;10.954;2023-12-20T02:44:57;53.62;28.76;73.65;;
63692;Laerm;49838;51.798;10.954;2023-12-20T02:47:25;33.47;28.09;46.56;;
63692;Laerm;49838;51.798;10.954;2023-12-20T02:49:52;31.20;28.54;39.31;;
63692;Laerm;49838;51.798;10.954;2023-12-20T02:52:19;30.66;28.23;34.42;;
63692;Laerm;49838;51.798;10.954;2023-12-20T02:54:47;50.13;28.52;67.12;;
63692;Laerm;49838;51.798;10.954;2023-12-20T02:57:15;33.01;29.78;40.47;;
63692;Laerm;49838;51.798;10.954;2023-12-20T02:59:43;34.14;29.69;42.22;;
63692;Laerm;49838;51.798;10.954;2023-12-20T03:02:10;33.86;28.82;42.41;;
63692;Laerm;49838;51.798;10.954;2023-12-20T03:04:37;32.41;28.78;40.33;;
63692;Laerm;49838;51.798;10.954;2023-12-20T03:07:04;34.65;29.74;45.46;;
63692;Laerm;49838;51.798;10.954;2023-12-20T03:09:32;37.72;31.14;51.25;;
63692;Laerm;49838;51.798;10.954;2023-12-20T03:11:59;38.06;31.04;52.23;;
63692;Laerm;49838;51.798;10.954;2023-12-20T03:14:27;39.31;32.09;56.53;;
63692;Laerm;49838;51.798;10.954;2023-12-20T03:16:55;38.90;32.97;51.92;;
63692;Laerm;49838;51.798;10.954;2023-12-20T03:19:22;36.37;31.58;45.70;;
63692;Laerm;49838;51.798;10.954;2023-12-20T03:21:49;37.37;31.92;46.30;;
63692;Laerm;49838;51.798;10.954;2023-12-20T03:24:19;37.47;30.86;46.30;;
63692;Laerm;49838;51.798;10.954;2023-12-20T03:26:46;37.62;31.39;46.44;;
63692;Laerm;49838;51.798;10.954;2023-12-20T03:29:13;38.08;30.87;46.14;;
63692;Laerm;49838;51.798;10.954;2023-12-20T03:31:42;35.41;30.09;49.83;;
63692;Laerm;49838;51.798;10.954;2023-12-20T03:34:09;35.45;30.52;47.23;;
63692;Laerm;49838;51.798;10.954;2023-12-20T03:36:36;35.12;30.19;47.15;;
63692;Laerm;49838;51.798;10.954;2023-12-20T03:39:04;38.21;31.55;55.62;;
63692;Laerm;49838;51.798;10.954;2023-12-20T03:41:32;37.02;29.34;60.39;;
63692;Laerm;49838;51.798;10.954;2023-12-20T03:43:59;36.20;29.90;54.79;;
63692;Laerm;49838;51.798;10.954;2023-12-20T03:46:26;34.31;29.52;45.15;;
63692;Laerm;49838;51.798;10.954;2023-12-20T03:48:55;34.08;29.14;42.65;;
63692;Laerm;49838;51.798;10.954;2023-12-20T03:51:22;43.03;31.28;71.40;;
63692;Laerm;49838;51.798;10.954;2023-12-20T03:53:49;46.71;32.01;76.09;;
63692;Laerm;49838;51.798;10.954;2023-12-20T03:56:16;36.18;30.66;44.51;;
63692;Laerm;49838;51.798;10.954;2023-12-20T03:58:44;34.12;29.66;42.36;;
63692;Laerm;49838;51.798;10.954;2023-12-20T04:01:11;36.06;31.56;42.17;;
63692;Laerm;49838;51.798;10.954;2023-12-20T04:03:39;37.90;32.47;51.43;;
63692;Laerm;49838;51.798;10.954;2023-12-20T04:06:07;39.45;34.29;62.25;;
63692;Laerm;49838;51.798;10.954;2023-12-20T04:08:34;37.82;33.04;53.62;;
63692;Laerm;49838;51.798;10.954;2023-12-20T04:11:02;38.14;32.35;46.66;;
63692;Laerm;49838;51.798;10.954;2023-12-20T04:13:29;36.23;32.03;42.96;;
63692;Laerm;49838;51.798;10.954;2023-12-20T04:15:56;38.56;32.45;48.32;;
63692;Laerm;49838;51.798;10.954;2023-12-20T04:18:23;37.13;32.80;43.98;;
63692;Laerm;49838;51.798;10.954;2023-12-20T04:20:51;49.21;32.02;65.85;;
63692;Laerm;49838;51.798;10.954;2023-12-20T04:23:19;48.39;33.77;65.03;;
63692;Laerm;49838;51.798;10.954;2023-12-20T04:25:47;47.08;33.07;68.39;;
63692;Laerm;49838;51.798;10.954;2023-12-20T04:28:14;45.95;34.45;64.31;;
63692;Laerm;49838;51.798;10.954;2023-12-20T04:30:42;53.38;32.00;67.48;;
63692;Laerm;49838;51.798;10.954;2023-12-20T04:33:09;37.72;32.58;61.90;;
63692;Laerm;49838;51.798;10.954;2023-12-20T04:35:36;50.67;33.40;68.14;;
63692;Laerm;49838;51.798;10.954;2023-12-20T04:38:03;48.74;33.26;68.58;;
63692;Laerm;49838;51.798;10.954;2023-12-20T04:40:32;39.59;32.24;61.95;;
63692;Laerm;49838;51.798;10.954;2023-12-20T04:42:59;50.66;35.25;66.69;;
63692;Laerm;49838;51.798;10.954;2023-12-20T04:45:26;40.47;33.80;55.89;;
63692;Laerm;49838;51.798;10.954;2023-12-20T04:47:55;53.00;33.49;70.96;;
63692;Laerm;49838;51.798;10.954;2023-12-20T04:50:22;52.55;36.30;68.35;;
63692;Laerm;49838;51.798;10.954;2023-12-20T04:52:49;38.98;34.04;50.65;;
63692;Laerm;49838;51.798;10.954;2023-12-20T04:55:16;55.74;32.13;73.88;;
63692;Laerm;49838;51.798;10.954;2023-12-20T04:57:45;51.35;33.69;69.21;;
63692;Laerm;49838;51.798;10.954;2023-12-20T05:00:13;37.46;32.93;58.92;;
63692;Laerm;49838;51.798;10.954;2023-12-20T05:02:41;44.15;34.00;66.02;;
63692;Laerm;49838;51.798;10.954;2023-12-20T05:05:08;53.74;37.16;75.91;;
63692;Laerm;49838;51.798;10.954;2023-12-20T05:07:36;56.27;35.66;72.47;;
63692;Laerm;49838;51.798;10.954;2023-12-20T05:10:03;42.81;35.06;60.57;;
63692;Laerm;49838;51.798;10.954;2023-12-20T05:12:31;49.20;36.29;66.52;;
63692;Laerm;49838;51.798;10.954;2023-12-20T05:15:00;39.26;35.35;47.34;;
63692;Laerm;49838;51.798;10.954;2023-12-20T05:17:27;55.48;36.53;80.31;;
63692;Laerm;49838;51.798;10.954;2023-12-20T05:19:54;55.61;36.94;74.73;;
63692;Laerm;49838;51.798;10.954;2023-12-20T05:22:22;40.16;35.97;48.66;;
63692;Laerm;49838;51.798;10.954;2023-12-20T05:24:52;55.74;38.75;72.87;;
63692;Laerm;49838;51.798;10.954;2023-12-20T05:27:19;57.57;37.77;76.08;;
63692;Laerm;49838;51.798;10.954;2023-12-20T05:29:47;54.00;39.48;68.41;;
63692;Laerm;49838;51.798;10.954;2023-12-20T05:32:15;55.41;37.15;72.83;;
63692;Laerm;49838;51.798;10.954;2023-12-20T05:34:43;54.75;38.84;72.69;;
63692;Laerm;49838;51.798;10.954;2023-12-20T05:37:10;50.59;38.48;67.41;;
63692;Laerm;49838;51.798;10.954;2023-12-20T05:39:37;49.90;37.93;66.00;;
63692;Laerm;49838;51.798;10.954;2023-12-20T05:42:05;54.82;39.42;70.08;;
63692;Laerm;49838;51.798;10.954;2023-12-20T05:44:32;57.72;38.02;73.59;;
63692;Laerm;49838;51.798;10.954;2023-12-20T05:46:59;52.69;37.72;70.23;;
63692;Laerm;49838;51.798;10.954;2023-12-20T05:49:28;56.92;38.47;75.62;;
63692;Laerm;49838;51.798;10.954;2023-12-20T05:51:55;56.98;39.21;70.39;;
63692;Laerm;49838;51.798;10.954;2023-12-20T05:54:22;59.29;39.97;72.98;;
63692;Laerm;49838;51.798;10.954;2023-12-20T05:56:49;60.51;41.85;75.21;;
63692;Laerm;49838;51.798;10.954;2023-12-20T05:59:16;55.56;37.90;71.55;;
63692;Laerm;49838;51.798;10.954;2023-12-20T06:01:44;48.97;38.96;66.16;;
63692;Laerm;49838;51.798;10.954;2023-12-20T06:04:11;58.43;38.93;75.76;;
63692;Laerm;49838;51.798;10.954;2023-12-20T06:06:41;55.93;38.61;73.52;;
63692;Laerm;49838;51.798;10.954;2023-12-20T06:09:09;64.04;38.00;83.97;;
63692;Laerm;49838;51.798;10.954;2023-12-20T06:11:36;57.02;37.90;70.90;;
63692;Laerm;49838;51.798;10.954;2023-12-20T06:14:04;58.10;38.94;71.72;;
63692;Laerm;49838;51.798;10.954;2023-12-20T06:16:31;54.09;39.06;72.01;;
63692;Laerm;49838;51.798;10.954;2023-12-20T06:18:58;56.52;40.63;72.19;;
63692;Laerm;49838;51.798;10.954;2023-12-20T06:21:26;58.03;40.09;70.53;;
63692;Laerm;49838;51.798;10.954;2023-12-20T06:23:54;62.71;40.52;79.76;;
63692;Laerm;49838;51.798;10.954;2023-12-20T06:26:21;60.06;41.34;74.70;;
63692;Laerm;49838;51.798;10.954;2023-12-20T06:28:49;58.47;42.66;72.01;;
63692;Laerm;49838;51.798;10.954;2023-12-20T06:31:16;57.76;41.27;70.86;;
63692;Laerm;49838;51.798;10.954;2023-12-20T06:33:43;63.10;41.35;80.80;;
63692;Laerm;49838;51.798;10.954;2023-12-20T06:36:11;61.15;41.68;73.63;;
63692;Laerm;49838;51.798;10.954;2023-12-20T06:38:39;61.31;39.92;78.82;;
63692;Laerm;49838;51.798;10.954;2023-12-20T06:41:12;54.66;40.28;71.43;;
63692;Laerm;49838;51.798;10.954;2023-12-20T06:43:40;62.59;42.75;74.46;;
63692;Laerm;49838;51.798;10.954;2023-12-20T06:46:08;56.81;41.24;78.07;;
63692;Laerm;49838;51.798;10.954;2023-12-20T06:48:35;57.02;41.43;72.95;;
63692;Laerm;49838;51.798;10.954;2023-12-20T06:51:02;59.84;39.95;76.04;;
63692;Laerm;49838;51.798;10.954;2023-12-20T06:53:30;52.41;40.39;68.32;;
63692;Laerm;49838;51.798;10.954;2023-12-20T06:55:57;56.94;40.05;73.70;;
63692;Laerm;49838;51.798;10.954;2023-12-20T06:58:26;59.10;40.31;71.55;;
63692;Laerm;49838;51.798;10.954;2023-12-20T07:00:53;59.68;43.22;72.07;;
63692;Laerm;49838;51.798;10.954;2023-12-20T07:03:20;50.17;40.51;67.19;;
63692;Laerm;49838;51.798;10.954;2023-12-20T07:05:47;53.11;39.40;69.99;;
63692;Laerm;49838;51.798;10.954;2023-12-20T07:08:14;57.82;40.52;73.20;;
63692;Laerm;49838;51.798;10.954;2023-12-20T07:10:41;56.41;40.36;70.06;;
63692;Laerm;49838;51.798;10.954;2023-12-20T07:13:08;55.94;38.72;71.97;;
63692;Laerm;49838;51.798;10.954;2023-12-20T07:15:37;56.59;39.42;70.24;;
63692;Laerm;49838;51.798;10.954;2023-12-20T07:18:05;62.08;41.72;76.27;;
63692;Laerm;49838;51.798;10.954;2023-12-20T07:20:32;52.38;40.30;67.69;;
63692;Laerm;49838;51.798;10.954;2023-12-20T07:22:59;52.62;39.86;68.04;;
63692;Laerm;49838;51.798;10.954;2023-12-20T07:25:28;57.46;41.20;72.41;;
63692;Laerm;49838;51.798;10.954;2023-12-20T07:27:58;55.01;40.73;77.27;;
63692;Laerm;49838;51.798;10.954;2023-12-20T07:30:25;58.82;40.40;75.63;;
63692;Laerm;49838;51.798;10.954;2023-12-20T07:32:54;55.94;41.24;74.29;;
63692;Laerm;49838;51.798;10.954;2023-12-20T07:35:22;59.24;40.10;76.70;;
63692;Laerm;49838;51.798;10.954;2023-12-20T07:37:49;58.74;42.59;77.47;;
63692;Laerm;49838;51.798;10.954;2023-12-20T07:40:17;66.68;41.09;90.32;;
63692;Laerm;49838;51.798;10.954;2023-12-20T07:42:44;52.29;38.57;70.76;;
63692;Laerm;49838;51.798;10.954;2023-12-20T07:45:11;56.60;40.99;70.93;;
63692;Laerm;49838;51.798;10.954;2023-12-20T07:47:39;58.27;38.71;72.58;;
63692;Laerm;49838;51.798;10.954;2023-12-20T07:50:08;58.45;37.82;74.73;;
63692;Laerm;49838;51.798;10.954;2023-12-20T07:52:36;60.07;36.42;78.18;;
63692;Laerm;49838;51.798;10.954;2023-12-20T07:55:03;58.72;38.26;73.06;;
63692;Laerm;49838;51.798;10.954;2023-12-20T07:57:31;61.39;38.16;75.46;;
63692;Laerm;49838;51.798;10.954;2023-12-20T07:59:58;58.19;38.09;71.55;;
63692;Laerm;49838;51.798;10.954;2023-12-20T08:02:25;55.97;36.73;72.62;;
63692;Laerm;49838;51.798;10.954;2023-12-20T08:04:52;54.78;37.08;70.23;;
63692;Laerm;49838;51.798;10.954;2023-12-20T08:07:21;55.24;36.32;70.86;;
63692;Laerm;49838;51.798;10.954;2023-12-20T08:09:48;55.34;38.45;70.62;;
63692;Laerm;49838;51.798;10.954;2023-12-20T08:12:17;55.32;39.28;71.16;;
63692;Laerm;49838;51.798;10.954;2023-12-20T08:14:44;61.33;41.31;77.14;;
63692;Laerm;49838;51.798;10.954;2023-12-20T08:17:12;53.73;40.97;68.74;;
63692;Laerm;49838;51.798;10.954;2023-12-20T08:19:42;60.31;40.29;77.45;;
63692;Laerm;49838;51.798;10.954;2023-12-20T08:22:09;53.88;38.64;71.29;;
63692;Laerm;49838;51.798;10.954;2023-12-20T08:24:38;58.19;41.12;72.62;;
63692;Laerm;49838;51.798;10.954;2023-12-20T08:27:05;59.97;46.99;72.69;;
63692;Laerm;49838;51.798;10.954;2023-12-20T08:29:32;61.36;50.62;73.30;;
63692;Laerm;49838;51.798;10.954;2023-12-20T08:31:59;70.38;52.90;88.83;;
63692;Laerm;49838;51.798;10.954;2023-12-20T08:34:27;61.46;40.84;77.89;;
63692;Laerm;49838;51.798;10.954;2023-12-20T08:36:54;54.75;41.88;70.12;;
63692;Laerm;49838;51.798;10.954;2023-12-20T08:39:21;57.73;42.78;74.29;;
63692;Laerm;49838;51.798;10.954;2023-12-20T08:41:50;53.71;41.61;67.26;;
63692;Laerm;49838;51.798;10.954;2023-12-20T08:44:17;63.73;43.09;81.24;;
63692;Laerm;49838;51.798;10.954;2023-12-20T08:46:45;59.74;44.44;73.10;;
63692;Laerm;49838;51.798;10.954;2023-12-20T08:49:12;58.56;40.71;73.95;;
63692;Laerm;49838;51.798;10.954;2023-12-20T08:51:39;56.81;43.39;68.91;;
63692;Laerm;49838;51.798;10.954;2023-12-20T08:54:07;57.38;41.97;72.43;;
63692;Laerm;49838;51.798;10.954;2023-12-20T08:56:34;59.35;42.34;72.42;;
63692;Laerm;49838;51.798;10.954;2023-12-20T08:59:03;58.01;42.79;73.43;;
63692;Laerm;49838;51.798;10.954;2023-12-20T09:01:30;57.31;41.66;72.90;;
63692;Laerm;49838;51.798;10.954;2023-12-20T09:03:58;57.90;42.40;72.55;;
63692;Laerm;49838;51.798;10.954;2023-12-20T09:06:25;59.79;43.14;75.18;;
63692;Laerm;49838;51.798;10.954;2023-12-20T09:08:52;60.35;42.73;73.44;;
63692;Laerm;49838;51.798;10.954;2023-12-20T09:11:19;60.35;45.21;74.21;;
63692;Laerm;49838;51.798;10.954;2023-12-20T09:13:47;56.29;42.73;71.49;;
63692;Laerm;49838;51.798;10.954;2023-12-20T09:16:15;62.75;43.25;81.35;;
63692;Laerm;49838;51.798;10.954;2023-12-20T09:18:43;57.68;41.01;72.31;;
63692;Laerm;49838;51.798;10.954;2023-12-20T09:21:10;56.46;40.53;73.56;;
63692;Laerm;49838;51.798;10.954;2023-12-20T09:23:38;56.65;42.98;72.62;;
63692;Laerm;49838;51.798;10.954;2023-12-20T09:26:06;56.74;42.76;69.88;;
63692;Laerm;49838;51.798;10.954;2023-12-20T09:28:33;61.05;43.16;78.64;;
63692;Laerm;49838;51.798;10.954;2023-12-20T09:31:04;60.96;43.50;76.51;;
63692;Laerm;49838;51.798;10.954;2023-12-20T09:33:33;59.98;43.19;74.03;;
63692;Laerm;49838;51.798;10.954;2023-12-20T09:36:00;60.01;46.07;73.06;;
63692;Laerm;49838;51.798;10.954;2023-12-20T09:38:28;55.67;43.29;73.07;;
63692;Laerm;49838;51.798;10.954;2023-12-20T09:40:55;58.12;41.08;73.66;;
63692;Laerm;49838;51.798;10.954;2023-12-20T09:43:24;61.22;45.36;75.42;;
63692;Laerm;49838;51.798;10.954;2023-12-20T09:45:55;60.57;45.27;74.66;;
63692;Laerm;49838;51.798;10.954;2023-12-20T09:48:26;62.38;43.44;75.62;;
63692;Laerm;49838;51.798;10.954;2023-12-20T09:50:55;59.48;45.92;75.96;;
63692;Laerm;49838;51.798;10.954;2023-12-20T09:53:22;56.12;42.02;72.36;;
63692;Laerm;49838;51.798;10.954;2023-12-20T09:55:58;61.73;43.95;72.52;;
63692;Laerm;49838;51.798;10.954;2023-12-20T09:58:26;62.93;43.83;75.52;;
63692;Laerm;49838;51.798;10.954;2023-12-20T10:00:53;61.29;45.11;74.77;;
63692;Laerm;49838;51.798;10.954;2023-12-20T10:03:25;63.40;45.51;80.52;;
63692;Laerm;49838;51.798;10.954;2023-12-20T10:05:56;58.53;45.43;72.66;;
63692;Laerm;49838;51.798;10.954;2023-12-20T10:08:24;58.08;43.93;74.14;;
63692;Laerm;49838;51.798;10.954;2023-12-20T10:10:52;55.74;44.77;73.10;;
63692;Laerm;49838;51.798;10.954;2023-12-20T10:13:19;62.62;45.83;73.57;;
63692;Laerm;49838;51.798;10.954;2023-12-20T10:15:46;57.48;42.39;73.06;;
63692;Laerm;49838;51.798;10.954;2023-12-20T10:18:15;62.48;42.96;76.64;;
63692;Laerm;49838;51.798;10.954;2023-12-20T10:20:44;60.23;43.43;76.56;;
63692;Laerm;49838;51.798;10.954;2023-12-20T10:23:15;55.53;42.07;75.78;;
63692;Laerm;49838;51.798;10.954;2023-12-20T10:25:55;58.23;43.09;79.88;;
63692;Laerm;49838;51.798;10.954;2023-12-20T10:28:22;58.78;44.74;69.61;;
63692;Laerm;49838;51.798;10.954;2023-12-20T10:30:54;57.56;41.51;70.75;;
63692;Laerm;49838;51.798;10.954;2023-12-20T10:33:24;60.59;44.27;81.06;;
63692;Laerm;49838;51.798;10.954;2023-12-20T10:35:52;62.18;44.58;76.22;;
63692;Laerm;49838;51.798;10.954;2023-12-20T10:38:21;61.46;45.06;77.18;;
63692;Laerm;49838;51.798;10.954;2023-12-20T10:40:54;57.04;42.75;72.27;;
63692;Laerm;49838;51.798;10.954;2023-12-20T10:43:24;54.03;40.92;70.72;;
63692;Laerm;49838;51.798;10.954;2023-12-20T10:45:53;60.98;42.41;73.63;;
63692;Laerm;49838;51.798;10.954;2023-12-20T10:48:21;60.05;46.13;74.39;;
63692;Laerm;49838;51.798;10.954;2023-12-20T10:50:55;58.57;43.23;71.71;;
63692;Laerm;49838;51.798;10.954;2023-12-20T10:53:24;64.43;44.95;79.79;;
63692;Laerm;49838;51.798;10.954;2023-12-20T10:55:52;61.02;51.46;74.14;;
63692;Laerm;49838;51.798;10.954;2023-12-20T10:58:23;64.34;43.51;82.55;;
63692;Laerm;49838;51.798;10.954;2023-12-20T11:00:55;57.37;42.63;73.35;;
63692;Laerm;49838;51.798;10.954;2023-12-20T11:03:25;61.61;43.92;73.84;;
63692;Laerm;49838;51.798;10.954;2023-12-20T11:05:59;68.50;44.38;86.12;;
63692;Laerm;49838;51.798;10.954;2023-12-20T11:08:38;58.15;44.04;74.06;;
63692;Laerm;49838;51.798;10.954;2023-12-20T11:11:10;57.41;44.27;69.82;;
63692;Laerm;49838;51.798;10.954;2023-12-20T11:13:44;61.12;44.15;73.03;;
63692;Laerm;49838;51.798;10.954;2023-12-20T11:16:17;58.48;43.10;70.48;;
63692;Laerm;49838;51.798;10.954;2023-12-20T11:18:45;60.56;42.24;75.23;;
63692;Laerm;49838;51.798;10.954;2023-12-20T11:21:12;57.19;40.84;72.90;;
63692;Laerm;49838;51.798;10.954;2023-12-20T11:23:42;59.69;41.26;71.46;;
63692;Laerm;49838;51.798;10.954;2023-12-20T11:26:09;56.79;43.82;71.24;;
63692;Laerm;49838;51.798;10.954;2023-12-20T11:28:37;61.56;43.58;77.27;;
63692;Laerm;49838;51.798;10.954;2023-12-20T11:31:05;62.51;45.21;75.53;;
63692;Laerm;49838;51.798;10.954;2023-12-20T11:33:36;61.91;45.68;76.86;;
63692;Laerm;49838;51.798;10.954;2023-12-20T11:36:12;59.56;41.11;73.66;;
63692;Laerm;49838;51.798;10.954;2023-12-20T11:38:54;56.97;40.91;75.72;;
63692;Laerm;49838;51.798;10.954;2023-12-20T11:41:23;59.21;42.07;76.81;;
63692;Laerm;49838;51.798;10.954;2023-12-20T11:43:56;71.40;50.82;82.33;;
63692;Laerm;49838;51.798;10.954;2023-12-20T11:46:23;58.76;44.83;74.01;;
63692;Laerm;49838;51.798;10.954;2023-12-20T11:48:51;51.98;43.94;67.43;;
63692;Laerm;49838;51.798;10.954;2023-12-20T11:51:18;56.24;44.77;70.01;;
63692;Laerm;49838;51.798;10.954;2023-12-20T11:53:52;60.74;44.70;76.80;;
63692;Laerm;49838;51.798;10.954;2023-12-20T11:56:19;63.51;44.45;80.97;;
63692;Laerm;49838;51.798;10.954;2023-12-20T11:58:47;63.42;44.13;75.21;;
63692;Laerm;49838;51.798;10.954;2023-12-20T12:01:15;59.25;45.17;75.79;;
63692;Laerm;49838;51.798;10.954;2023-12-20T12:03:42;54.55;43.67;71.87;;
63692;Laerm;49838;51.798;10.954;2023-12-20T12:06:10;59.19;45.12;73.74;;
63692;Laerm;49838;51.798;10.954;2023-12-20T12:08:37;63.03;46.68;73.16;;
63692;Laerm;49838;51.798;10.954;2023-12-20T12:11:06;62.98;45.49;76.94;;
63692;Laerm;49838;51.798;10.954;2023-12-20T12:13:33;58.52;45.14;73.72;;
63692;Laerm;49838;51.798;10.954;2023-12-20T12:16:01;55.91;41.94;70.99;;
63692;Laerm;49838;51.798;10.954;2023-12-20T12:18:28;55.79;40.83;70.14;;
63692;Laerm;49838;51.798;10.954;2023-12-20T12:21:00;61.99;43.92;74.01;;
63692;Laerm;49838;51.798;10.954;2023-12-20T12:23:27;56.33;41.65;76.14;;
63692;Laerm;49838;51.798;10.954;2023-12-20T12:25:54;52.87;41.57;69.49;;
63692;Laerm;49838;51.798;10.954;2023-12-20T12:28:31;62.02;41.56;80.31;;
63692;Laerm;49838;51.798;10.954;2023-12-20T12:31:00;57.09;40.84;73.73;;
63692;Laerm;49838;51.798;10.954;2023-12-20T12:33:27;58.83;41.24;76.25;;
63692;Laerm;49838;51.798;10.954;2023-12-20T12:35:55;59.10;40.98;76.98;;
63692;Laerm;49838;51.798;10.954;2023-12-20T12:38:22;61.01;41.50;78.20;;
63692;Laerm;49838;51.798;10.954;2023-12-20T12:40:54;60.96;40.80;75.21;;
63692;Laerm;49838;51.798;10.954;2023-12-20T12:43:23;59.34;42.45;71.60;;
63692;Laerm;49838;51.798;10.954;2023-12-20T12:45:54;48.44;41.70;65.90;;
63692;Laerm;49838;51.798;10.954;2023-12-20T12:48:22;59.77;40.03;74.64;;
63692;Laerm;49838;51.798;10.954;2023-12-20T12:50:49;58.43;42.88;75.04;;
63692;Laerm;49838;51.798;10.954;2023-12-20T12:53:19;48.90;39.73;65.32;;
63692;Laerm;49838;51.798;10.954;2023-12-20T12:55:49;60.40;44.18;75.19;;
63692;Laerm;49838;51.798;10.954;2023-12-20T12:58:17;60.59;42.07;74.66;;
63692;Laerm;49838;51.798;10.954;2023-12-20T13:00:46;58.30;41.91;75.42;;
63692;Laerm;49838;51.798;10.954;2023-12-20T13:03:14;56.71;43.03;69.93;;
63692;Laerm;49838;51.798;10.954;2023-12-20T13:05:42;58.77;42.70;71.68;;
63692;Laerm;49838;51.798;10.954;2023-12-20T13:08:09;62.20;44.23;76.75;;
63692;Laerm;49838;51.798;10.954;2023-12-20T13:10:38;59.12;41.86;75.12;;
63692;Laerm;49838;51.798;10.954;2023-12-20T13:13:05;61.14;43.44;76.20;;
63692;Laerm;49838;51.798;10.954;2023-12-20T13:15:32;62.49;40.31;87.19;;
63692;Laerm;49838;51.798;10.954;2023-12-20T13:17:59;56.45;40.33;70.57;;
63692;Laerm;49838;51.798;10.954;2023-12-20T13:20:28;55.53;40.99;74.98;;
63692;Laerm;49838;51.798;10.954;2023-12-20T13:22:55;54.35;40.81;72.15;;
63692;Laerm;49838;51.798;10.954;2023-12-20T13:25:22;57.13;40.84;73.04;;
63692;Laerm;49838;51.798;10.954;2023-12-20T13:27:50;56.75;43.57;74.32;;
63692;Laerm;49838;51.798;10.954;2023-12-20T13:30:17;60.11;43.03;73.68;;
63692;Laerm;49838;51.798;10.954;2023-12-20T13:32:44;59.55;40.90;74.80;;
63692;Laerm;49838;51.798;10.954;2023-12-20T13:35:12;61.53;42.92;75.19;;
63692;Laerm;49838;51.798;10.954;2023-12-20T13:37:40;58.03;41.11;77.51;;